地図

経路データ

SID SEASON NUMBER BASIN SUBBASIN NAME ISO_TIME NATURE LAT LON WMO_WIND WMO_PRES WMO_AGENCY TRACK_TYPE DIST2LAND LANDFALL IFLAG USA_AGENCY USA_ATCF_ID USA_LAT USA_LON USA_RECORD USA_STATUS USA_WIND USA_PRES USA_SSHS USA_R34_NE USA_R34_SE USA_R34_SW USA_R34_NW USA_R50_NE USA_R50_SE USA_R50_SW USA_R50_NW USA_R64_NE USA_R64_SE USA_R64_SW USA_R64_NW USA_POCI USA_ROCI USA_RMW USA_EYE TOKYO_LAT TOKYO_LON TOKYO_GRADE TOKYO_WIND TOKYO_PRES TOKYO_R50_DIR TOKYO_R50_LONG TOKYO_R50_SHORT TOKYO_R30_DIR TOKYO_R30_LONG TOKYO_R30_SHORT TOKYO_LAND CMA_LAT CMA_LON CMA_CAT CMA_WIND CMA_PRES HKO_LAT HKO_LON HKO_CAT HKO_WIND HKO_PRES NEWDELHI_LAT NEWDELHI_LON NEWDELHI_GRADE NEWDELHI_WIND NEWDELHI_PRES NEWDELHI_CI NEWDELHI_DP NEWDELHI_POCI REUNION_LAT REUNION_LON REUNION_TYPE REUNION_WIND REUNION_PRES REUNION_TNUM REUNION_CI REUNION_RMW REUNION_R34_NE REUNION_R34_SE REUNION_R34_SW REUNION_R34_NW REUNION_R50_NE REUNION_R50_SE REUNION_R50_SW REUNION_R50_NW REUNION_R64_NE REUNION_R64_SE REUNION_R64_SW REUNION_R64_NW BOM_LAT BOM_LON BOM_TYPE BOM_WIND BOM_PRES BOM_TNUM BOM_CI BOM_RMW BOM_R34_NE BOM_R34_SE BOM_R34_SW BOM_R34_NW BOM_R50_NE BOM_R50_SE BOM_R50_SW BOM_R50_NW BOM_R64_NE BOM_R64_SE BOM_R64_SW BOM_R64_NW BOM_ROCI BOM_POCI BOM_EYE BOM_POS_METHOD BOM_PRES_METHOD NADI_LAT NADI_LON NADI_CAT NADI_WIND NADI_PRES WELLINGTON_LAT WELLINGTON_LON WELLINGTON_WIND WELLINGTON_PRES DS824_LAT DS824_LON DS824_STAGE DS824_WIND DS824_PRES TD9636_LAT TD9636_LON TD9636_STAGE TD9636_WIND TD9636_PRES TD9635_LAT TD9635_LON TD9635_WIND TD9635_PRES TD9635_ROCI NEUMANN_LAT NEUMANN_LON NEUMANN_CLASS NEUMANN_WIND NEUMANN_PRES MLC_LAT MLC_LON MLC_CLASS MLC_WIND MLC_PRES USA_GUST BOM_GUST BOM_GUST_PER REUNION_GUST REUNION_GUST_PER USA_SEAHGT USA_SEARAD_NE USA_SEARAD_SE USA_SEARAD_SW USA_SEARAD_NW STORM_SPEED STORM_DIR
1958015S15122 1958 5 SI WA NOT_NAMED 1958-01-14 23:00:00 NR -14.5000 121.800 main 253 248 __________O___ -1 -14.5000 121.800 1 7 222
1958015S15122 1958 5 SI WA NOT_NAMED 1958-01-15 00:00:00 TS -14.5833 121.719 main 248 235 O________OP___ jtwc_sh SH081958 -14.6000 121.700 -1 -14.6000 121.700 TC -14.5667 121.738 1 6 223
1958015S15122 1958 5 SI WA NOT_NAMED 1958-01-15 03:00:00 TS -14.7858 121.521 main 242 233 P________PP___ SH081958 -14.8000 121.500 -1 -14.8000 121.500 TC -14.7667 121.549 1 6 223
1958015S15122 1958 5 SI WA NOT_NAMED 1958-01-15 05:00:00 TS -14.9200 121.388 main 240 232 P________PP___ SH081958 -14.9333 121.367 -1 -14.9333 121.367 TC -14.9000 121.420 1 6 224
1958015S15122 1958 5 SI WA NOT_NAMED 1958-01-15 06:00:00 TS -14.9889 121.318 main 239 239 O________OP___ jtwc_sh SH081958 -15.0000 121.300 -1 -15.0000 121.300 TC -14.9667 121.354 1 6 224
1958015S15122 1958 5 SI WA NOT_NAMED 1958-01-15 09:00:00 TS -15.1889 121.116 main 239 239 P________PP___ SH081958 -15.2000 121.100 -1 -15.2000 121.100 TC -15.1667 121.147 1 6 225
1958015S15122 1958 5 SI WA NOT_NAMED 1958-01-15 11:00:00 TS -15.3222 120.978 main 239 239 P________PO___ SH081958 -15.3333 120.967 -1 -15.3333 120.967 TC -15.3000 121.000 1 6 225
1958015S15122 1958 5 SI WA NOT_NAMED 1958-01-15 12:00:00 TS -15.3889 120.908 main 239 239 O________OP___ jtwc_sh SH081958 -15.4000 120.900 -1 -15.4000 120.900 TC -15.3666 120.923 1 6 224
1958015S15122 1958 5 SI WA NOT_NAMED 1958-01-15 15:00:00 TS -15.5977 120.700 main 239 239 P________PP___ SH081958 -15.6150 120.707 -1 -15.6150 120.707 TC -15.5630 120.686 1 6 225
1958015S15122 1958 5 SI WA NOT_NAMED 1958-01-15 17:00:00 TS -15.7257 120.557 main 239 239 P________PP___ SH081958 -15.7447 120.572 -1 -15.7447 120.572 TC -15.6876 120.528 1 6 229
1958015S15122 1958 5 SI WA NOT_NAMED 1958-01-15 18:00:00 TS -15.7823 120.483 main 240 240 O________OP___ jtwc_sh SH081958 -15.8000 120.500 -1 -15.8000 120.500 TC -15.7469 120.450 1 5 239
1958015S15122 1958 5 SI WA NOT_NAMED 1958-01-15 21:00:00 TS -15.9130 120.233 main 261 261 P________PP___ SH081958 -15.9151 120.235 -1 -15.9151 120.235 TC -15.9089 120.230 1 5 243
1958015S15122 1958 5 SI WA NOT_NAMED 1958-01-15 23:00:00 TS -15.9813 120.079 main 264 264 P________PO___ SH081958 -15.9719 120.069 -1 -15.9719 120.069 TC -16.0000 120.100 1 5 244
1958015S15122 1958 5 SI WA NOT_NAMED 1958-01-16 00:00:00 TS -16.0128 120.015 main 274 270 O________OP___ jtwc_sh SH081958 -16.0000 120.000 -1 -16.0000 120.000 TC -16.0383 120.046 1 2 18
1958015S15122 1958 5 SI WA NOT_NAMED 1958-01-16 01:00:00 TS -15.9060 120.083 1002 bom main 270 270 P_____O__PP___ SH081958 -16.0359 119.950 -1 -14.2000 121.500 1002 -16.0359 119.950 TC -16.0727 119.996 1 4 29
1958015S15122 1958 5 SI WA NOT_NAMED 1958-01-16 03:00:00 TS -15.8547 120.103 main 270 270 P_____P__PP___ SH081958 -16.1074 119.877 -1 -14.2906 121.399 -16.1074 119.877 TC -16.1314 119.907 1 1 22
1958015S15122 1958 5 SI WA NOT_NAMED 1958-01-16 05:00:00 TS -15.8160 120.120 main 276 267 P_____P__PP___ SH081958 -16.1724 119.825 -1 -14.3809 121.298 -16.1724 119.825 TC -16.1798 119.827 1 2 29
1958015S15122 1958 5 SI WA NOT_NAMED 1958-01-16 06:00:00 TS -15.7568 120.159 main 267 267 O_____P__OP___ jtwc_sh SH081958 -16.2000 119.800 -1 -14.4258 121.247 -16.2000 119.800 TC -16.2013 119.790 1 1 258
1958015S15122 1958 5 SI WA NOT_NAMED 1958-01-16 09:00:00 TS -15.8299 120.050 main 276 276 P_____P__PP___ SH081958 -16.2500 119.715 -1 -14.5592 121.093 -16.2500 119.715 TC -16.2604 119.678 1 3 236
1958015S15122 1958 5 SI WA NOT_NAMED 1958-01-16 11:00:00 TS -15.8768 119.970 main 279 279 P_____P__PO___ SH081958 -16.2802 119.645 -1 -14.6467 120.989 -16.2802 119.645 TC -16.3000 119.600 1 3 239
1958015S15122 1958 5 SI WA NOT_NAMED 1958-01-16 12:00:00 TS -15.9037 119.922 main 289 289 O_____P__OP___ jtwc_sh SH081958 -16.3000 119.600 -1 -14.6899 120.936 -16.3000 119.600 TC -16.3250 119.551 1 4 239
1958015S15122 1958 5 SI WA NOT_NAMED 1958-01-16 15:00:00 TS -16.0042 119.743 main 303 298 P_____P__PP___ SH081958 -16.4001 119.400 -1 -14.8168 120.775 -16.4001 119.400 TC -16.4000 119.397 1 4 240
1958015S15122 1958 5 SI WA NOT_NAMED 1958-01-16 17:00:00 TS -16.0721 119.620 main 307 307 P_____P__PP___ SH081958 -16.4698 119.261 -1 -14.8989 120.666 -16.4698 119.261 TC -16.4500 119.293 1 4 240
1958015S15122 1958 5 SI WA NOT_NAMED 1958-01-16 18:00:00 TS -16.1035 119.563 main 307 307 O_____P__OP___ jtwc_sh SH081958 -16.5000 119.200 -1 -14.9390 120.610 -16.5000 119.200 TC -16.4750 119.241 1 3 241
1958015S15122 1958 5 SI WA NOT_NAMED 1958-01-16 21:00:00 TS -16.1763 119.425 main 322 322 P_____P__PP___ SH081958 -16.5500 119.085 -1 -15.0554 120.439 -16.5500 119.085 TC -16.5500 119.091 1 3 240
1958015S15122 1958 5 SI WA NOT_NAMED 1958-01-16 23:00:00 TS -16.2225 119.344 main 332 322 P_____P__PO___ SH081958 -16.5802 119.028 -1 -15.1294 120.321 -16.5802 119.028 TC -16.6000 119.000 1 1 260
1958015S15122 1958 5 SI WA NOT_NAMED 1958-01-17 00:00:00 TS -16.1862 119.364 main 322 322 O_____P__OP___ jtwc_sh SH081958 -16.6000 119.000 -1 -15.1651 120.261 -16.6000 119.000 TC -16.6262 118.961 1 2 0
1958015S15122 1958 5 SI WA NOT_NAMED 1958-01-17 01:00:00 TS -16.1620 119.372 1000 bom main 322 322 P_____O__PP___ SH081958 -16.6302 118.967 -1 -15.2000 120.200 1000 -16.6302 118.967 TC -16.6526 118.925 1 1 282
1958015S15122 1958 5 SI WA NOT_NAMED 1958-01-17 03:00:00 TS -16.1777 119.328 main 332 332 P_____P__PP___ SH081958 -16.7000 118.900 -1 -15.2671 120.075 -16.7000 118.900 TC -16.7053 118.856 1 2 245
1958015S15122 1958 5 SI WA NOT_NAMED 1958-01-17 06:00:00 TS -16.2267 119.230 main 342 338 O_____P__OP___ jtwc_sh SH081958 -16.8000 118.800 -1 -15.3612 119.883 -16.8000 118.800 TC -16.7829 118.761 1 3 241
1958015S15122 1958 5 SI WA NOT_NAMED 1958-01-17 09:00:00 TS -16.2995 119.094 main 348 348 P_____P__PP___ SH081958 -16.8575 118.707 -1 -15.4479 119.685 -16.8575 118.707 TC -16.8557 118.667 1 3 242
1958015S15122 1958 5 SI WA NOT_NAMED 1958-01-17 11:00:00 TS -16.3419 119.000 main 358 355 P_____P__PO___ SH081958 -16.8859 118.639 -1 -15.5017 119.550 -16.8859 118.639 TC -16.9000 118.600 1 3 245
1958015S15122 1958 5 SI WA NOT_NAMED 1958-01-17 12:00:00 TS -16.3618 118.950 main 355 355 O_____P__OP___ jtwc_sh SH081958 -16.9000 118.600 -1 -15.5275 119.483 -16.9000 118.600 TC -16.9188 118.563 1 3 249
1958015S15122 1958 5 SI WA NOT_NAMED 1958-01-17 15:00:00 TS -16.4217 118.786 main 375 375 P_____P__PP___ SH081958 -16.9500 118.450 -1 -15.6004 119.278 -16.9500 118.450 TC -16.9691 118.447 1 3 250
1958015S15122 1958 5 SI WA NOT_NAMED 1958-01-17 18:00:00 TS -16.4774 118.620 main 391 391 O_____P__OP___ jtwc_sh SH081958 -17.0000 118.300 -1 -15.6669 119.073 -17.0000 118.300 TC -17.0153 118.323 1 3 250
1958015S15122 1958 5 SI WA NOT_NAMED 1958-01-17 21:00:00 TS -16.5301 118.473 main 402 398 P_____P__PP___ SH081958 -17.0500 118.200 -1 -15.7276 118.869 -17.0500 118.200 TC -17.0636 118.192 1 3 250
1958015S15122 1958 5 SI WA NOT_NAMED 1958-01-17 23:00:00 TS -16.5639 118.375 main 398 398 P_____P__PO___ SH081958 -17.0833 118.136 -1 -15.7650 118.734 -17.0833 118.136 TC -17.1000 118.100 1 3 251
1958015S15122 1958 5 SI WA NOT_NAMED 1958-01-18 00:00:00 TS -16.5801 118.324 main 400 400 O_____P__OP___ jtwc_sh SH081958 -17.1000 118.100 -1 -15.7828 118.667 -17.1000 118.100 TC -17.1180 118.053 1 3 253
1958015S15122 1958 5 SI WA NOT_NAMED 1958-01-18 01:00:00 TS -16.5950 118.270 995 bom main 400 400 P_____O__PP___ SH081958 -17.1140 118.056 -1 -15.8000 118.600 995 -17.1140 118.056 TC -17.1364 118.006 1 3 255
1958015S15122 1958 5 SI WA NOT_NAMED 1958-01-18 03:00:00 TS -16.6210 118.156 main 402 397 P_____P__PP___ SH081958 -17.1425 117.957 -1 -15.8178 118.463 -17.1425 117.957 TC -17.1758 117.908 1 3 256
1958015S15122 1958 5 SI WA NOT_NAMED 1958-01-18 06:00:00 TS -16.6647 117.981 main 397 397 O_____P__OP___ jtwc_sh SH081958 -17.2000 117.800 -1 -15.8354 118.257 -17.2000 117.800 TC -17.2445 117.757 1 3 253
1958015S15122 1958 5 SI WA NOT_NAMED 1958-01-18 09:00:00 TS -16.7212 117.810 main 404 397 P_____P__PP___ SH081958 -17.2850 117.650 -1 -15.8477 118.053 -17.2850 117.650 TC -17.3302 117.603 1 4 249
1958015S15122 1958 5 SI WA NOT_NAMED 1958-01-18 11:00:00 TS -16.7683 117.696 main 397 397 P_____P__PO___ SH081958 -17.3583 117.550 -1 -15.8564 117.920 -17.3583 117.550 TC -17.4000 117.500 1 4 246
1958015S15122 1958 5 SI WA NOT_NAMED 1958-01-18 12:00:00 TS -16.7953 117.640 main 401 395 O_____P__OP___ jtwc_sh SH081958 -17.4000 117.500 -1 -15.8616 117.854 -17.4000 117.500 TC -17.4399 117.450 1 4 240
1958015S15122 1958 5 SI WA NOT_NAMED 1958-01-18 15:00:00 TS -16.8893 117.474 main 395 387 P_____P__PP___ SH081958 -17.5425 117.350 -1 -15.8835 117.662 -17.5425 117.350 TC -17.5763 117.300 1 4 237
1958015S15122 1958 5 SI WA NOT_NAMED 1958-01-18 18:00:00 TS -16.9988 117.311 main 389 381 O_____P__OP___ jtwc_sh SH081958 -17.7000 117.200 -1 -15.9201 117.478 -17.7000 117.200 TC -17.7301 117.150 1 4 234
1958015S15122 1958 5 SI WA NOT_NAMED 1958-01-18 21:00:00 TS -17.1156 117.153 main 381 373 P_____P__PP___ SH081958 -17.8500 117.050 -1 -15.9780 117.307 -17.8500 117.050 TC -17.8921 117.000 1 4 231
1958015S15122 1958 5 SI WA NOT_NAMED 1958-01-18 23:00:00 TS -17.1995 117.050 main 373 373 P_____P__PO___ SH081958 -17.9500 116.950 -1 -16.0318 117.200 -17.9500 116.950 TC -18.0000 116.900 1 4 229
1958015S15122 1958 5 SI WA NOT_NAMED 1958-01-19 00:00:00 TS -17.2430 116.999 main 376 365 O_____P__OP___ jtwc_sh SH081958 -18.0000 116.900 -1 -16.0640 117.149 -18.0000 116.900 TC -18.0512 116.845 1 4 229
1958015S15122 1958 5 SI WA NOT_NAMED 1958-01-19 01:00:00 TS -17.2865 116.947 995 bom main 369 358 P_____O__PP___ SH081958 -18.0500 116.850 -1 -16.1000 117.100 995 -18.0500 116.850 TC -18.1026 116.790 1 4 229
1958015S15122 1958 5 SI WA NOT_NAMED 1958-01-19 03:00:00 TS -17.3738 116.843 main 357 346 P_____P__PP___ SH081958 -18.1500 116.750 -1 -16.1677 117.003 -18.1500 116.750 TC -18.2055 116.678 1 4 227
1958015S15122 1958 5 SI WA NOT_NAMED 1958-01-19 06:00:00 TS -17.5121 116.693 main 346 324 O_____P__OP___ jtwc_sh SH081958 -18.3000 116.600 -1 -16.2892 116.869 -18.3000 116.600 TC -18.3580 116.518 1 4 224
1958015S15122 1958 5 SI WA NOT_NAMED 1958-01-19 09:00:00 TS -17.6599 116.549 main 325 313 P_____P__PP___ SH081958 -18.4500 116.442 -1 -16.4371 116.748 -18.4500 116.442 TC -18.5057 116.377 1 4 221
1958015S15122 1958 5 SI WA NOT_NAMED 1958-01-19 11:00:00 TS -17.7642 116.463 main 313 313 P_____P__PO___ SH081958 -18.5500 116.344 -1 -16.5520 116.674 -18.5500 116.344 TC -18.6000 116.300 1 4 218
1958015S15122 1958 5 SI WA NOT_NAMED 1958-01-19 12:00:00 TS -17.8160 116.423 main 314 293 O_____P__OP___ jtwc_sh SH081958 -18.6000 116.300 -1 -16.6146 116.639 -18.6000 116.300 TC -18.6351 116.266 1 4 212
1958015S15122 1958 5 SI WA NOT_NAMED 1958-01-19 15:00:00 TS -17.9786 116.316 main 293 282 P_____P__PP___ SH081958 -18.7500 116.178 -1 -16.8247 116.543 -18.7500 116.178 TC -18.7310 116.185 1 4 207
1958015S15122 1958 5 SI WA NOT_NAMED 1958-01-19 18:00:00 TS -18.1574 116.240 main 273 262 O_____P__OP___ jtwc_sh SH081958 -18.9000 116.100 -1 -17.0705 116.458 -18.9000 116.100 TC -18.8345 116.133 1 4 196
1958015S15122 1958 5 SI WA NOT_NAMED 1958-01-19 21:00:00 TS -18.3504 116.200 main 251 240 P_____P__PP___ SH081958 -19.0275 116.085 -1 -17.3550 116.383 -19.0275 116.085 TC -18.9736 116.106 1 4 190
1958015S15122 1958 5 SI WA NOT_NAMED 1958-01-19 23:00:00 TS -18.5035 116.188 main 240 229 P_____P__PO___ SH081958 -19.1329 116.095 -1 -17.5678 116.339 -19.1329 116.095 TC -19.1000 116.100 1 5 0
1958015S15122 1958 5 SI WA NOT_NAMED 1958-01-20 00:00:00 TS -18.5918 116.182 main 229 218 O_____P__OP___ jtwc_sh SH081958 -19.2000 116.100 -1 -17.6814 116.319 -19.2000 116.100 TC -19.1778 116.090 1 6 182
1958015S15122 1958 5 SI WA NOT_NAMED 1958-01-20 01:00:00 TS -18.6889 116.169 990 bom main 218 200 P_____O__PP___ SH081958 -19.2803 116.097 -1 -17.8000 116.300 990 -19.2803 116.097 TC -19.2631 116.081 1 6 186
1958015S15122 1958 5 SI WA NOT_NAMED 1958-01-20 03:00:00 TS -18.9044 116.140 main 200 168 P_____P__PP___ SH081958 -19.4700 116.093 -1 -18.0468 116.234 -19.4700 116.093 TC -19.4537 116.072 1 7 185
1958015S15122 1958 5 SI WA NOT_NAMED 1958-01-20 06:00:00 TS -19.2693 116.114 main 158 128 O_____P__OP___ jtwc_sh SH081958 -19.8000 116.100 -1 -18.4540 116.145 -19.8000 116.100 TC -19.7814 116.083 1 8 183
1958015S15122 1958 5 SI WA NOT_NAMED 1958-01-20 09:00:00 TS -19.6583 116.110 main 118 100 P_____P__PP___ SH081958 -20.1350 116.120 -1 -18.8958 116.080 -20.1350 116.120 TC -20.1451 116.136 1 8 0
1958015S15122 1958 5 SI WA NOT_NAMED 1958-01-20 11:00:00 TS -19.9330 116.134 main 100 84 P_____P__PO___ SH081958 -20.3750 116.164 -1 -19.2042 116.056 -20.3750 116.164 TC -20.4000 116.200 1 8 175
1958015S15122 1958 5 SI WA NOT_NAMED 1958-01-20 12:00:00 TS -20.0735 116.157 main 76 38 O_____P__OP___ jtwc_sh SH081958 -20.5000 116.200 -1 -19.3613 116.052 -20.5000 116.200 TC -20.5257 116.238 1 9 168
1958015S15122 1958 5 SI WA NOT_NAMED 1958-01-20 15:00:00 TS -20.5093 116.269 main 38 30 P_____P__PP___ SH081958 -20.8925 116.370 -1 -19.8396 116.077 -20.8925 116.370 TC -20.9204 116.389 1 9 165
1958015S15122 1958 5 SI WA NOT_NAMED 1958-01-20 16:00:00 TS -20.6580 116.321 990 bom main 22 0 P_____O__PP___ SH081958 -21.0279 116.442 -1 -20.0000 116.100 990 4 -21.0279 116.442 TC -21.0559 116.451 1 9 161
1958015S15122 1958 5 SI WA NOT_NAMED 1958-01-20 18:00:00 TS -20.9467 116.434 main 0 0 O_____P__OP___ jtwc_sh SH081958 -21.3000 116.600 -1 -20.2698 116.135 990 -21.3000 116.600 TC -21.3293 116.588 1 10 158
1958015S15122 1958 5 SI WA NOT_NAMED 1958-01-20 21:00:00 TS -21.4044 116.645 990 bom main 0 0 P_____O__PP___ SH081958 -21.7075 116.835 -1 -20.8000 116.300 990 -21.7075 116.835 TC -21.7368 116.826 1 11 155
1958015S15122 1958 5 SI WA NOT_NAMED 1958-01-20 23:00:00 TS -21.7394 116.827 main 0 0 P_____P__PO___ SH081958 -21.9723 117.008 -1 -21.3276 116.517 992 -21.9723 117.008 TC -22.0000 117.000 1 11 152
1958015S15122 1958 5 SI WA NOT_NAMED 1958-01-21 00:00:00 TS -21.9057 116.927 main 0 0 O_____P__OP___ jtwc_sh SH081958 -22.1000 117.100 -1 -21.6161 116.653 993 -22.1000 117.100 TC -22.1123 117.082 1 11 150
1958015S15122 1958 5 SI WA NOT_NAMED 1958-01-21 01:00:00 TS -22.0679 117.033 995 bom main 0 0 P_____O__PP___ SH081958 -22.2224 117.194 -1 -21.9000 116.800 995 -22.2224 117.194 TC -22.2211 117.168 1 11 147
1958015S15122 1958 5 SI WA NOT_NAMED 1958-01-21 03:00:00 TS -22.3692 117.256 main 0 0 P_____P__PP___ SH081958 -22.4575 117.393 -1 -22.3817 117.083 -22.4575 117.393 TC -22.4334 117.348 1 11 143
1958015S15122 1958 5 SI WA NOT_NAMED 1958-01-21 06:00:00 TS -22.7964 117.622 main 0 0 O_____P__OP___ jtwc_sh SH081958 -22.8000 117.700 -1 -23.0066 117.555 -22.8000 117.700 TC -22.7579 117.644 1 11 140
1958015S15122 1958 5 SI WA NOT_NAMED 1958-01-21 09:00:00 TS -23.1998 118.012 main 0 0 P_____P__PP___ SH081958 -23.1199 117.986 -1 -23.5334 118.083 -23.1199 117.986 TC -23.1203 117.968 1 11 138
1958015S15122 1958 5 SI WA NOT_NAMED 1958-01-21 11:00:00 TS -23.4772 118.293 main 0 0 P_____P__PO___ SH081958 -23.3604 118.189 -1 -23.8406 118.462 -23.3604 118.189 TC -23.4000 118.200 1 12 137
1958015S15122 1958 5 SI WA NOT_NAMED 1958-01-21 12:00:00 TS -23.6241 118.442 main 0 0 O_____P__OP___ jtwc_sh SH081958 -23.5000 118.300 -1 -23.9833 118.660 -23.5000 118.300 TC -23.5547 118.321 1 13 137
1958015S15122 1958 5 SI WA NOT_NAMED 1958-01-21 15:00:00 TS -24.1145 118.950 main 0 0 P_____P__PP___ SH081958 -24.0103 118.679 -1 -24.3774 119.283 -24.0103 118.679 TC -24.0736 118.700 1 14 135
1958015S15122 1958 5 SI WA NOT_NAMED 1958-01-21 16:00:00 TS -24.2915 119.161 998 bom main 0 0 P_____O__PP___ SH081958 -24.2020 118.816 -1 -24.5000 119.500 998 -24.2020 118.816 TC -24.2617 118.832 1 16 130
1958015S15122 1958 5 SI WA NOT_NAMED 1958-01-21 18:00:00 TS -24.6259 119.624 main 0 0 O_____P__OP___ jtwc_sh SH081958 -24.6000 119.100 -1 -24.7362 119.947 998 -24.6000 119.100 TC -24.6556 119.101 1 17 125
1958015S15122 1958 5 SI WA NOT_NAMED 1958-01-21 21:00:00 TS -25.0791 120.402 main 0 0 ______P___P___ SH081958 -1 -25.0726 120.643 1000 TC -25.2765 119.517 1 16 122
1958015S15122 1958 5 SI WA NOT_NAMED 1958-01-21 23:00:00 TS -25.3450 120.911 main 0 0 ______P___O___ SH081958 -1 -25.2883 121.119 1001 TC -25.7000 119.800 1 19 110
1958015S15122 1958 5 SI WA NOT_NAMED 1958-01-22 00:00:00 TS -25.3963 121.373 main 0 0 ______P_______ -1 -25.3945 121.359 1001 1 19 104
1958015S15122 1958 5 SI WA NOT_NAMED 1958-01-22 01:00:00 NR -25.5000 121.600 1002 bom main 0 ______O_______ -1 -25.5000 121.600 1002 1 14 117

IBTrACS Databaseについて

本データベースは、米国NOAAが公開する1842年以降の世界の熱帯低気圧のベストトラックデータアーカイブInternational Best Track Archive for Climate Stewardship (IBTrACS)を、ウェブで閲覧しやすい形式に変換したものです。

最終更新日:2021-11-26